createdAt,value
2023-05-05T00:01:10.675Z,32.92
2023-05-05T00:03:38.724Z,32.92
2023-05-05T00:06:08.076Z,33.24
2023-05-05T00:08:36.102Z,33.87
2023-05-05T00:11:04.100Z,34.58
2023-05-05T00:13:33.560Z,34.49
2023-05-05T00:16:01.692Z,34.38
2023-05-05T00:18:29.609Z,35.27
2023-05-05T00:20:57.560Z,35.64
2023-05-05T00:23:25.445Z,35.52
2023-05-05T00:25:53.320Z,35.48
2023-05-05T00:28:21.156Z,36.13
2023-05-05T00:30:50.549Z,35.09
2023-05-05T00:33:18.464Z,34.42
2023-05-05T00:35:47.526Z,35.05
2023-05-05T00:38:15.456Z,36.01
2023-05-05T00:40:43.378Z,35.27
2023-05-05T00:43:12.906Z,35.55
2023-05-05T00:45:42.902Z,35.99
2023-05-05T00:48:12.718Z,35.21
2023-05-05T00:50:41.200Z,35.03
2023-05-05T00:55:37.138Z,34.89
2023-05-05T00:58:05.389Z,34.53
2023-05-05T01:00:34.455Z,34.66
2023-05-05T01:03:03.296Z,34.26
2023-05-05T01:05:43.543Z,34.19
2023-05-05T01:08:30.325Z,34.02
2023-05-05T01:11:03.093Z,33.91
2023-05-05T01:13:38.447Z,34.15
2023-05-05T01:16:15.025Z,34.33
2023-05-05T01:18:48.792Z,34.47
2023-05-05T01:21:24.402Z,34.29
2023-05-05T01:24:34.326Z,34.00
2023-05-05T01:27:23.914Z,34.20
2023-05-05T01:30:06.402Z,34.00
2023-05-05T01:32:43.000Z,33.27
2023-05-05T01:35:17.210Z,33.38
2023-05-05T01:38:00.473Z,34.18
2023-05-05T01:40:33.067Z,33.58
2023-05-05T01:43:03.237Z,33.63
2023-05-05T01:45:34.600Z,34.34
2023-05-05T01:48:06.714Z,34.05
2023-05-05T01:50:35.698Z,34.78
2023-05-05T01:53:05.961Z,34.31
2023-05-05T01:55:35.627Z,34.44
2023-05-05T01:58:05.422Z,34.99
2023-05-05T02:00:35.396Z,35.49
2023-05-05T02:03:08.601Z,35.09
2023-05-05T02:05:39.742Z,35.14
2023-05-05T02:08:09.783Z,35.14
2023-05-05T02:10:41.368Z,34.90
2023-05-05T02:13:12.430Z,34.91
2023-05-05T02:15:41.490Z,35.57
2023-05-05T02:18:12.709Z,35.20
2023-05-05T02:20:41.676Z,34.92
2023-05-05T02:23:09.872Z,35.13
2023-05-05T02:25:41.174Z,35.68
2023-05-05T02:28:15.010Z,35.97
2023-05-05T02:30:44.416Z,36.52
2023-05-05T02:33:18.227Z,36.61
2023-05-05T02:35:48.402Z,36.97
2023-05-05T02:38:18.794Z,37.00
2023-05-05T02:40:53.308Z,37.36
2023-05-05T02:43:25.041Z,37.72
2023-05-05T02:45:53.235Z,37.54
2023-05-05T02:48:23.402Z,37.75
2023-05-05T02:50:53.049Z,38.64
2023-05-05T02:53:39.758Z,40.08
2023-05-05T02:56:13.949Z,40.63
2023-05-05T02:58:54.174Z,41.73
2023-05-05T03:01:30.612Z,41.27
2023-05-05T03:04:07.680Z,42.19
2023-05-05T03:06:42.686Z,42.16
2023-05-05T03:09:17.005Z,42.21
2023-05-05T03:11:50.933Z,42.51
2023-05-05T03:14:21.576Z,43.11
2023-05-05T03:16:51.931Z,42.98
2023-05-05T03:19:22.477Z,42.26
2023-05-05T03:21:55.713Z,42.37
2023-05-05T03:24:24.446Z,42.16
2023-05-05T03:27:00.876Z,43.60
2023-05-05T03:29:34.394Z,43.24
2023-05-05T03:32:04.662Z,44.60
2023-05-05T03:34:37.279Z,44.52
2023-05-05T03:37:06.284Z,44.63
2023-05-05T03:39:34.556Z,44.03
2023-05-05T03:42:02.638Z,45.28
2023-05-05T03:44:33.314Z,44.65
2023-05-05T03:47:01.245Z,44.02
2023-05-05T03:49:31.206Z,43.95
2023-05-05T03:52:01.640Z,44.38
2023-05-05T03:54:30.191Z,44.30
2023-05-05T03:56:58.211Z,44.97
2023-05-05T03:59:27.038Z,45.31
2023-05-05T04:01:55.358Z,45.35
2023-05-05T04:04:23.314Z,45.82
2023-05-05T04:06:51.209Z,46.40
2023-05-05T04:09:20.428Z,47.26
2023-05-05T04:11:48.612Z,48.01
2023-05-05T04:14:16.733Z,48.54
2023-05-05T04:16:44.770Z,48.99
2023-05-05T04:19:13.531Z,48.38
2023-05-05T04:21:42.419Z,48.14
2023-05-05T04:24:11.249Z,49.21
2023-05-05T04:26:41.548Z,48.32
2023-05-05T04:29:09.855Z,48.92
2023-05-05T04:31:38.097Z,48.17
2023-05-05T04:34:06.130Z,48.88
2023-05-05T04:36:34.577Z,48.54
2023-05-05T04:39:03.074Z,48.08
2023-05-05T04:41:31.415Z,47.50
2023-05-05T04:46:29.076Z,48.21
2023-05-05T04:48:57.110Z,47.74
2023-05-05T04:51:26.109Z,49.03
2023-05-05T04:53:54.078Z,48.37
2023-05-05T04:56:22.058Z,49.61
2023-05-05T04:58:51.149Z,48.95
2023-05-05T05:01:20.725Z,49.99
2023-05-05T05:03:48.953Z,49.37
2023-05-05T05:06:16.997Z,48.41
2023-05-05T05:08:58.191Z,47.80
2023-05-05T05:11:26.489Z,50.08
2023-05-05T05:13:54.797Z,51.01
2023-05-05T05:16:26.001Z,50.11
2023-05-05T05:18:54.219Z,50.48
2023-05-05T05:21:22.716Z,50.66
2023-05-05T05:23:50.775Z,50.63
2023-05-05T05:26:18.868Z,51.76
2023-05-05T05:28:47.019Z,51.87
2023-05-05T05:31:15.040Z,51.20
2023-05-05T05:33:44.370Z,50.74
2023-05-05T05:36:14.573Z,50.25
2023-05-05T05:38:42.545Z,50.48
2023-05-05T05:41:11.452Z,49.12
2023-05-05T05:43:41.527Z,48.49
2023-05-05T05:46:10.547Z,48.13
2023-05-05T05:48:40.760Z,48.87
2023-05-05T05:51:10.836Z,49.54
2023-05-05T05:53:39.036Z,50.33
2023-05-05T05:56:08.267Z,50.60
2023-05-05T05:58:36.879Z,51.23
2023-05-05T06:01:05.198Z,50.11
2023-05-05T06:03:33.425Z,49.82
2023-05-05T06:06:02.140Z,49.27
2023-05-05T06:08:31.898Z,49.26
2023-05-05T06:11:00.572Z,49.17
2023-05-05T06:13:28.683Z,50.45
2023-05-05T06:15:56.676Z,50.79
2023-05-05T06:18:24.949Z,48.83
2023-05-05T06:20:53.324Z,48.23
2023-05-05T06:23:25.461Z,49.75
2023-05-05T06:25:59.827Z,48.57
2023-05-05T06:28:27.842Z,48.83
2023-05-05T06:30:56.476Z,48.90
2023-05-05T06:33:24.526Z,48.19
2023-05-05T06:35:53.106Z,47.04
2023-05-05T06:38:21.185Z,47.18
2023-05-05T06:40:50.318Z,48.58
2023-05-05T06:43:19.642Z,47.29
2023-05-05T06:45:54.238Z,48.80
2023-05-05T06:48:22.161Z,47.93
2023-05-05T06:50:50.133Z,48.07
2023-05-05T06:53:18.054Z,46.71
2023-05-05T06:55:48.295Z,46.74
2023-05-05T06:58:16.221Z,47.89
2023-05-05T07:00:45.592Z,48.45
2023-05-05T07:03:13.747Z,48.02
2023-05-05T07:05:42.108Z,48.31
2023-05-05T07:08:11.325Z,47.66
2023-05-05T07:10:39.394Z,46.12
2023-05-05T07:13:07.987Z,45.31
2023-05-05T07:15:36.177Z,45.01
2023-05-05T07:18:05.675Z,44.48
2023-05-05T07:20:33.589Z,46.43
2023-05-05T07:23:01.578Z,44.78
2023-05-05T07:25:29.531Z,45.18
2023-05-05T07:27:57.657Z,45.82
2023-05-05T07:30:26.093Z,46.18
2023-05-05T07:32:55.097Z,43.37
2023-05-05T07:35:24.704Z,44.32
2023-05-05T07:37:52.760Z,42.96
2023-05-05T07:40:20.852Z,42.97
2023-05-05T07:42:48.878Z,44.17
2023-05-05T07:45:16.842Z,42.96
2023-05-05T07:47:44.870Z,41.72
2023-05-05T07:50:13.262Z,42.73
2023-05-05T07:52:48.327Z,45.05
2023-05-05T07:55:19.773Z,44.28
2023-05-05T07:57:48.166Z,44.91
2023-05-05T08:00:19.354Z,45.68
2023-05-05T08:02:47.987Z,44.27
2023-05-05T08:05:16.551Z,43.77
2023-05-05T08:07:45.898Z,43.16
2023-05-05T08:10:14.105Z,43.07
2023-05-05T08:12:42.418Z,42.46
2023-05-05T08:15:11.182Z,41.17
2023-05-05T08:17:48.077Z,42.12
2023-05-05T08:20:16.447Z,43.55
2023-05-05T08:22:46.153Z,43.10
2023-05-05T08:25:15.026Z,41.38
2023-05-05T08:27:44.046Z,40.86
2023-05-05T08:30:13.094Z,41.01
2023-05-05T08:32:41.096Z,41.98
2023-05-05T08:35:09.969Z,42.59
2023-05-05T08:37:38.248Z,43.30
2023-05-05T08:40:08.976Z,42.73
2023-05-05T08:42:39.159Z,42.76
2023-05-05T08:45:09.951Z,41.90
2023-05-05T08:47:39.291Z,40.66
2023-05-05T08:50:11.102Z,41.05
2023-05-05T08:52:41.369Z,39.85
2023-05-05T08:55:16.368Z,39.01
2023-05-05T08:57:51.611Z,38.33
2023-05-05T09:00:21.223Z,40.51
2023-05-05T09:02:49.537Z,37.43
2023-05-05T09:05:18.217Z,39.53
2023-05-05T09:07:47.443Z,37.82
2023-05-05T09:10:16.883Z,38.78
2023-05-05T09:12:45.032Z,39.32
2023-05-05T09:15:14.518Z,39.61
2023-05-05T09:17:43.453Z,38.88
2023-05-05T09:20:12.835Z,37.72
2023-05-05T09:22:42.019Z,38.89
2023-05-05T09:25:11.990Z,36.67
2023-05-05T09:27:42.784Z,37.44
2023-05-05T09:30:12.117Z,36.26
2023-05-05T09:32:47.607Z,36.10
2023-05-05T09:35:16.537Z,35.30
2023-05-05T09:37:44.708Z,34.90
2023-05-05T09:40:14.988Z,37.41
2023-05-05T09:42:44.942Z,37.69
2023-05-05T09:45:27.804Z,36.58
2023-05-05T09:47:59.818Z,38.14
2023-05-05T09:50:30.755Z,37.58
2023-05-05T09:53:00.782Z,35.85
2023-05-05T09:55:30.889Z,35.98
2023-05-05T09:58:19.513Z,36.15
2023-05-05T10:00:47.993Z,38.70
2023-05-05T10:03:16.077Z,36.15
2023-05-05T10:05:50.461Z,35.33
2023-05-05T10:08:19.664Z,35.08
2023-05-05T10:10:52.557Z,31.94
2023-05-05T10:13:24.106Z,32.91
2023-05-05T10:15:54.352Z,36.20
2023-05-05T10:18:23.961Z,36.18
2023-05-05T10:20:57.161Z,36.10
2023-05-05T10:23:28.129Z,36.66
2023-05-05T10:26:01.788Z,35.95
2023-05-05T10:28:34.712Z,37.02
2023-05-05T10:31:12.878Z,36.95
2023-05-05T10:33:56.318Z,36.95
2023-05-05T10:36:25.662Z,34.51
2023-05-05T10:38:56.771Z,34.88
2023-05-05T10:41:25.574Z,32.53
2023-05-05T10:43:56.707Z,34.83
2023-05-05T10:46:25.227Z,33.86
2023-05-05T10:49:01.017Z,33.71
2023-05-05T10:51:40.895Z,32.17
2023-05-05T10:54:15.265Z,28.53
2023-05-05T10:56:44.012Z,27.08
2023-05-05T10:59:47.786Z,26.07
2023-05-05T11:02:23.587Z,29.57
2023-05-05T11:05:14.910Z,29.49
2023-05-05T11:07:43.156Z,28.72
2023-05-05T11:10:12.478Z,30.61
2023-05-05T11:13:20.666Z,30.38
2023-05-05T11:15:52.412Z,28.08
2023-05-05T11:18:31.469Z,28.18
2023-05-05T11:21:19.456Z,32.84
2023-05-05T11:23:49.377Z,33.63
2023-05-05T11:26:18.960Z,30.90
2023-05-05T11:29:10.530Z,30.97
2023-05-05T11:31:39.925Z,33.15
2023-05-05T11:34:26.763Z,31.60
2023-05-05T11:36:58.608Z,31.61
2023-05-05T11:39:39.153Z,30.98
2023-05-05T11:42:26.002Z,31.31
2023-05-05T11:44:54.635Z,30.75
2023-05-05T11:47:33.881Z,30.06
2023-05-05T11:50:19.247Z,30.09
2023-05-05T11:52:48.367Z,30.65
2023-05-05T11:55:23.001Z,31.38
2023-05-05T11:57:51.136Z,31.34
2023-05-05T12:00:19.867Z,31.64
2023-05-05T12:02:57.662Z,32.51
2023-05-05T12:05:25.930Z,32.92
2023-05-05T12:07:59.497Z,33.32
2023-05-05T12:10:28.142Z,32.83
2023-05-05T12:12:56.078Z,32.00
2023-05-05T12:15:31.744Z,32.51
2023-05-05T12:18:03.044Z,32.61
2023-05-05T12:20:33.300Z,35.46
2023-05-05T12:23:03.027Z,33.74
2023-05-05T12:25:39.060Z,33.08
2023-05-05T12:28:08.460Z,33.42
2023-05-05T12:30:37.053Z,34.77
2023-05-05T12:33:08.490Z,33.54
2023-05-05T12:35:37.084Z,35.71
2023-05-05T12:38:05.500Z,35.50
2023-05-05T12:40:52.895Z,36.07
2023-05-05T12:43:26.493Z,36.51
2023-05-05T12:46:02.547Z,36.47
2023-05-05T12:48:32.149Z,39.06
2023-05-05T12:51:20.010Z,40.21
2023-05-05T12:53:50.067Z,42.42
2023-05-05T12:56:37.904Z,44.58
2023-05-05T12:59:07.735Z,47.12
2023-05-05T13:01:36.934Z,50.98
2023-05-05T13:04:11.960Z,54.14
2023-05-05T13:06:41.602Z,57.48
2023-05-05T13:09:10.139Z,59.15
2023-05-05T13:11:39.361Z,59.62
2023-05-05T13:14:08.118Z,58.95
2023-05-05T13:16:36.574Z,61.58
2023-05-05T13:19:04.609Z,60.64
2023-05-05T13:21:34.177Z,62.49
2023-05-05T13:24:18.971Z,65.78
2023-05-05T13:26:49.536Z,65.50
2023-05-05T13:29:17.681Z,62.79
2023-05-05T13:31:46.559Z,64.19
2023-05-05T13:34:14.698Z,62.65
2023-05-05T13:36:44.143Z,62.68
2023-05-05T13:39:12.692Z,66.17
2023-05-05T13:41:40.800Z,67.02
2023-05-05T13:44:08.827Z,65.37
2023-05-05T13:46:36.912Z,63.77
2023-05-05T13:49:04.945Z,60.61
2023-05-05T13:51:34.702Z,59.57
2023-05-05T13:54:04.395Z,58.74
2023-05-05T13:56:32.873Z,59.82
2023-05-05T13:59:00.949Z,60.15
2023-05-05T14:01:29.495Z,58.81
2023-05-05T14:03:58.360Z,59.18
2023-05-05T14:06:27.773Z,58.41
2023-05-05T14:08:55.856Z,58.94
2023-05-05T14:11:25.154Z,58.84
2023-05-05T14:13:53.192Z,58.26
2023-05-05T14:16:21.452Z,60.18
2023-05-05T14:18:49.384Z,57.02
2023-05-05T14:21:20.751Z,55.20
2023-05-05T14:23:48.693Z,54.31
2023-05-05T14:26:16.795Z,54.40
2023-05-05T14:28:48.984Z,54.11
2023-05-05T14:31:17.910Z,53.64
2023-05-05T14:33:46.088Z,53.48
2023-05-05T14:36:14.225Z,54.57
2023-05-05T14:38:43.116Z,53.69
2023-05-05T14:41:11.639Z,55.79
2023-05-05T14:43:39.500Z,53.64
2023-05-05T14:46:09.004Z,56.20
2023-05-05T14:48:37.671Z,55.56
2023-05-05T14:51:06.087Z,55.81
2023-05-05T14:53:35.165Z,54.81
2023-05-05T14:56:03.280Z,54.57
2023-05-05T14:58:31.281Z,54.13
2023-05-05T15:01:00.526Z,54.24
2023-05-05T15:03:30.227Z,53.21
2023-05-05T15:05:58.548Z,54.37
2023-05-05T15:08:26.821Z,54.35
2023-05-05T15:10:57.046Z,54.33
2023-05-05T15:13:25.124Z,53.89
2023-05-05T15:15:53.271Z,52.21
2023-05-05T15:18:21.424Z,52.15
2023-05-05T15:20:50.935Z,53.16
2023-05-05T15:23:19.203Z,52.83
2023-05-05T15:25:47.412Z,54.31
2023-05-05T15:28:15.500Z,53.72
2023-05-05T15:30:43.669Z,52.57
2023-05-05T15:33:11.923Z,52.10
2023-05-05T15:35:40.101Z,51.80
2023-05-05T15:38:09.587Z,51.63
2023-05-05T15:40:37.837Z,52.71
2023-05-05T15:43:06.815Z,54.69
2023-05-05T15:45:35.259Z,54.73
2023-05-05T15:48:03.392Z,56.70
2023-05-05T15:50:31.795Z,56.76
2023-05-05T15:53:00.558Z,57.98
2023-05-05T15:55:30.020Z,58.47
2023-05-05T15:57:58.223Z,58.49
2023-05-05T16:00:26.390Z,59.77
2023-05-05T16:02:54.516Z,60.12
2023-05-05T16:05:23.187Z,62.10
2023-05-05T16:07:52.598Z,63.90
2023-05-05T16:10:20.903Z,65.15
2023-05-05T16:12:52.226Z,67.90
2023-05-05T16:15:20.897Z,67.63
2023-05-05T16:17:48.985Z,67.17
2023-05-05T16:20:17.398Z,68.53
2023-05-05T16:22:45.999Z,69.68
2023-05-05T16:25:14.163Z,70.94
2023-05-05T16:27:42.353Z,68.94
2023-05-05T16:30:15.418Z,70.24
2023-05-05T16:35:12.200Z,71.26
2023-05-05T16:37:40.310Z,70.67
2023-05-05T16:40:09.709Z,70.79
2023-05-05T16:42:37.796Z,69.95
2023-05-05T16:45:07.441Z,70.04
2023-05-05T16:47:37.465Z,70.79
2023-05-05T16:50:06.547Z,72.09
2023-05-05T16:52:34.609Z,72.15
2023-05-05T16:55:04.745Z,68.82
2023-05-05T16:57:33.116Z,70.38
2023-05-05T17:00:01.254Z,70.12
2023-05-05T17:02:29.332Z,70.82
2023-05-05T17:04:58.856Z,72.70
2023-05-05T17:07:26.857Z,71.91
2023-05-05T17:09:55.040Z,71.99
2023-05-05T17:12:23.088Z,73.44
2023-05-05T17:14:51.366Z,73.01
2023-05-05T17:17:19.403Z,72.53
2023-05-05T17:19:47.676Z,73.21
2023-05-05T17:22:17.023Z,76.06
2023-05-05T17:24:44.881Z,76.31
2023-05-05T17:27:13.086Z,72.98
2023-05-05T17:29:41.365Z,70.69
2023-05-05T17:32:10.162Z,70.13
2023-05-05T17:34:38.180Z,70.59
2023-05-05T17:37:06.215Z,71.44
2023-05-05T17:39:35.859Z,72.56
2023-05-05T17:42:03.894Z,72.79
2023-05-05T17:44:32.677Z,72.85
2023-05-05T17:47:02.771Z,71.35
2023-05-05T17:49:31.025Z,72.51
2023-05-05T17:51:59.073Z,72.69
2023-05-05T17:54:27.198Z,73.94
2023-05-05T17:56:56.543Z,72.73
2023-05-05T17:59:24.647Z,71.76
2023-05-05T18:01:52.490Z,72.26
2023-05-05T18:04:20.437Z,70.79
2023-05-05T18:06:50.874Z,71.04
2023-05-05T18:09:20.685Z,71.61
2023-05-05T18:11:48.585Z,71.97
2023-05-05T18:14:19.979Z,72.08
2023-05-05T18:16:49.798Z,71.81
2023-05-05T18:19:18.055Z,71.64
2023-05-05T18:21:45.935Z,72.90
2023-05-05T18:24:19.958Z,72.35
2023-05-05T18:26:49.851Z,72.76
2023-05-05T18:29:19.466Z,72.45
2023-05-05T18:31:51.592Z,71.54
2023-05-05T18:34:20.544Z,71.19
2023-05-05T18:36:49.288Z,71.87
2023-05-05T18:39:17.914Z,73.22
2023-05-05T18:41:45.860Z,71.20
2023-05-05T18:44:13.829Z,70.49
2023-05-05T18:46:44.154Z,70.35
2023-05-05T18:49:12.384Z,71.10
2023-05-05T18:51:40.358Z,70.00
2023-05-05T18:54:08.405Z,69.22
2023-05-05T18:56:36.430Z,70.02
2023-05-05T18:59:04.766Z,69.62
2023-05-05T19:01:32.868Z,70.99
2023-05-05T19:04:02.348Z,74.24
2023-05-05T19:06:31.035Z,75.45
2023-05-05T19:08:59.309Z,76.61
2023-05-05T19:11:27.396Z,73.22
2023-05-05T19:13:55.275Z,72.61
2023-05-05T19:16:23.310Z,73.11
2023-05-05T19:18:54.642Z,71.69
2023-05-05T19:21:23.924Z,71.09
2023-05-05T19:23:51.959Z,71.11
2023-05-05T19:26:19.996Z,72.26
2023-05-05T19:28:50.394Z,74.38
2023-05-05T19:31:18.430Z,73.47
2023-05-05T19:33:48.488Z,72.20
2023-05-05T19:36:16.575Z,72.07
2023-05-05T19:38:46.611Z,74.46
2023-05-05T19:41:14.596Z,74.07
2023-05-05T19:43:42.884Z,73.18
2023-05-05T19:46:10.908Z,72.96
2023-05-05T19:48:39.130Z,73.57
2023-05-05T19:51:07.035Z,73.28
2023-05-05T19:53:34.989Z,72.84
2023-05-05T19:56:04.927Z,72.35
2023-05-05T19:58:53.069Z,72.79
2023-05-05T20:01:21.025Z,72.32
2023-05-05T20:03:49.102Z,71.70
2023-05-05T20:06:17.093Z,71.12
2023-05-05T20:08:44.936Z,70.72
2023-05-05T20:11:15.803Z,72.43
2023-05-05T20:13:44.028Z,74.45
2023-05-05T20:16:12.598Z,74.25
2023-05-05T20:18:40.509Z,74.87
2023-05-05T20:21:08.497Z,76.30
2023-05-05T20:23:37.078Z,76.32
2023-05-05T20:26:05.147Z,75.25
2023-05-05T20:28:34.744Z,74.12
2023-05-05T20:31:03.091Z,73.20
2023-05-05T20:33:31.163Z,72.26
2023-05-05T20:35:59.124Z,74.54
2023-05-05T20:38:27.098Z,75.28
2023-05-05T20:40:55.197Z,73.85
2023-05-05T20:43:23.267Z,72.45
2023-05-05T20:45:53.016Z,72.75
2023-05-05T20:48:20.962Z,72.19
2023-05-05T20:50:48.846Z,72.35
2023-05-05T20:53:18.914Z,71.90
2023-05-05T20:55:46.905Z,71.44
2023-05-05T20:58:14.732Z,72.46
2023-05-05T21:00:42.684Z,71.56
2023-05-05T21:03:12.429Z,72.41
2023-05-05T21:05:40.863Z,72.94
2023-05-05T21:08:09.086Z,73.11
2023-05-05T21:10:37.202Z,72.39
2023-05-05T21:13:05.168Z,71.89
2023-05-05T21:15:34.167Z,71.85
2023-05-05T21:18:03.196Z,73.69
2023-05-05T21:20:32.486Z,72.48
2023-05-05T21:23:07.872Z,72.68
2023-05-05T21:25:39.783Z,71.14
2023-05-05T21:28:07.864Z,70.31
2023-05-05T21:31:10.248Z,71.47
2023-05-05T21:33:47.755Z,70.32
2023-05-05T21:36:19.158Z,70.57
2023-05-05T21:38:47.605Z,71.47
2023-05-05T21:41:18.504Z,71.14
2023-05-05T21:43:46.853Z,71.28
2023-05-05T21:46:18.203Z,72.39
2023-05-05T21:48:47.825Z,73.07
2023-05-05T21:51:17.390Z,71.72
2023-05-05T21:53:45.529Z,71.41
2023-05-05T21:56:13.409Z,74.06
2023-05-05T21:58:41.505Z,72.87
2023-05-05T22:01:09.501Z,74.21
2023-05-05T22:03:37.543Z,73.33
2023-05-05T22:06:08.010Z,72.17
2023-05-05T22:08:37.523Z,71.95
2023-05-05T22:11:06.785Z,71.64
2023-05-05T22:13:34.845Z,74.61
2023-05-05T22:16:02.727Z,72.92
2023-05-05T22:18:30.630Z,72.89
2023-05-05T22:20:58.769Z,71.37
2023-05-05T22:23:26.631Z,71.67
2023-05-05T22:25:56.916Z,72.58
2023-05-05T22:28:24.885Z,72.13
2023-05-05T22:30:52.755Z,71.50
2023-05-05T22:33:20.685Z,72.31
2023-05-05T22:35:48.508Z,71.47
2023-05-05T22:38:16.475Z,72.66
2023-05-05T22:40:44.478Z,72.69
2023-05-05T22:43:13.803Z,73.90
2023-05-05T22:45:42.587Z,73.66
2023-05-05T22:48:10.478Z,72.21
2023-05-05T22:50:38.525Z,70.32
2023-05-05T22:53:07.472Z,70.35
2023-05-05T22:55:35.501Z,73.46
2023-05-05T22:58:03.420Z,74.02
2023-05-05T23:00:32.788Z,71.90
2023-05-05T23:03:01.153Z,73.37
2023-05-05T23:05:29.200Z,72.91
2023-05-05T23:07:59.887Z,72.33
2023-05-05T23:10:28.043Z,71.48
2023-05-05T23:12:55.926Z,72.20
2023-05-05T23:15:24.956Z,74.33
2023-05-05T23:17:54.226Z,74.58
2023-05-05T23:20:22.173Z,74.79
2023-05-05T23:22:50.060Z,73.62
2023-05-05T23:25:19.952Z,73.21
2023-05-05T23:27:54.163Z,74.16
2023-05-05T23:30:23.798Z,74.75
2023-05-05T23:32:51.708Z,73.86
2023-05-05T23:35:21.419Z,74.39
2023-05-05T23:37:49.794Z,73.25
2023-05-05T23:40:17.894Z,73.01
2023-05-05T23:42:45.855Z,71.76
2023-05-05T23:45:13.741Z,73.71
2023-05-05T23:47:41.721Z,73.95
2023-05-05T23:50:10.645Z,72.52
2023-05-05T23:52:39.886Z,72.39
2023-05-05T23:55:08.881Z,71.51
2023-05-05T23:57:37.363Z,71.82
